sensor_id;sensor_type;location;lat;lon;timestamp;temperature;humidity
51589;DHT22;37671;53.258;6.460;2023-01-29T00:01:08;3.50;99.90
51589;DHT22;37671;53.258;6.460;2023-01-29T00:03:34;3.50;99.90
51589;DHT22;37671;53.258;6.460;2023-01-29T00:06:03;3.50;99.90
51589;DHT22;37671;53.258;6.460;2023-01-29T00:08:33;3.50;99.90
51589;DHT22;37671;53.258;6.460;2023-01-29T00:11:03;3.50;99.90
51589;DHT22;37671;53.258;6.460;2023-01-29T00:13:30;3.60;99.90
51589;DHT22;37671;53.258;6.460;2023-01-29T00:15:57;4.10;99.90
51589;DHT22;37671;53.258;6.460;2023-01-29T00:18:24;3.50;99.90
51589;DHT22;37671;53.258;6.460;2023-01-29T00:20:49;3.50;99.90
51589;DHT22;37671;53.258;6.460;2023-01-29T00:23:16;3.60;99.90
51589;DHT22;37671;53.258;6.460;2023-01-29T00:25:41;3.50;99.90
51589;DHT22;37671;53.258;6.460;2023-01-29T00:28:08;3.60;99.90
51589;DHT22;37671;53.258;6.460;2023-01-29T00:30:34;3.60;99.90
51589;DHT22;37671;53.258;6.460;2023-01-29T00:33:00;3.60;99.90
51589;DHT22;37671;53.258;6.460;2023-01-29T00:35:26;3.60;99.90
51589;DHT22;37671;53.258;6.460;2023-01-29T00:37:53;3.60;99.90
51589;DHT22;37671;53.258;6.460;2023-01-29T00:40:19;3.60;99.90
51589;DHT22;37671;53.258;6.460;2023-01-29T00:42:45;3.60;99.90
51589;DHT22;37671;53.258;6.460;2023-01-29T00:45:29;3.60;99.90
51589;DHT22;37671;53.258;6.460;2023-01-29T00:47:55;3.60;99.90
51589;DHT22;37671;53.258;6.460;2023-01-29T00:50:20;3.60;99.90
51589;DHT22;37671;53.258;6.460;2023-01-29T00:52:46;3.60;99.90
51589;DHT22;37671;53.258;6.460;2023-01-29T00:55:14;3.60;99.90
51589;DHT22;37671;53.258;6.460;2023-01-29T00:57:39;3.60;99.90
51589;DHT22;37671;53.258;6.460;2023-01-29T01:00:08;3.60;99.90
51589;DHT22;37671;53.258;6.460;2023-01-29T01:02:34;3.60;99.90
51589;DHT22;37671;53.258;6.460;2023-01-29T01:05:19;3.60;99.90
51589;DHT22;37671;53.258;6.460;2023-01-29T01:07:46;3.60;99.90
51589;DHT22;37671;53.258;6.460;2023-01-29T01:10:24;3.60;99.90
51589;DHT22;37671;53.258;6.460;2023-01-29T01:15:20;3.60;99.90
51589;DHT22;37671;53.258;6.460;2023-01-29T01:17:46;3.60;99.90
51589;DHT22;37671;53.258;6.460;2023-01-29T01:20:13;3.60;99.90
51589;DHT22;37671;53.258;6.460;2023-01-29T01:22:39;4.80;99.90
51589;DHT22;37671;53.258;6.460;2023-01-29T01:25:05;3.60;99.90
51589;DHT22;37671;53.258;6.460;2023-01-29T01:27:31;3.60;99.90
51589;DHT22;37671;53.258;6.460;2023-01-29T01:29:56;3.60;99.90
51589;DHT22;37671;53.258;6.460;2023-01-29T01:32:22;3.60;99.90
51589;DHT22;37671;53.258;6.460;2023-01-29T01:34:48;3.60;99.90
51589;DHT22;37671;53.258;6.460;2023-01-29T01:37:13;3.60;99.90
51589;DHT22;37671;53.258;6.460;2023-01-29T01:39:39;3.60;99.90
51589;DHT22;37671;53.258;6.460;2023-01-29T01:42:11;3.70;99.90
51589;DHT22;37671;53.258;6.460;2023-01-29T01:44:53;3.70;99.90
51589;DHT22;37671;53.258;6.460;2023-01-29T01:50:00;3.70;99.90
51589;DHT22;37671;53.258;6.460;2023-01-29T01:52:29;3.70;99.90
51589;DHT22;37671;53.258;6.460;2023-01-29T01:54:56;4.30;99.90
51589;DHT22;37671;53.258;6.460;2023-01-29T01:57:23;3.70;99.90
51589;DHT22;37671;53.258;6.460;2023-01-29T01:59:56;3.80;99.90
51589;DHT22;37671;53.258;6.460;2023-01-29T02:02:24;3.80;99.90
51589;DHT22;37671;53.258;6.460;2023-01-29T02:05:11;3.80;99.90
51589;DHT22;37671;53.258;6.460;2023-01-29T02:07:57;3.80;99.90
51589;DHT22;37671;53.258;6.460;2023-01-29T02:10:45;3.80;99.90
51589;DHT22;37671;53.258;6.460;2023-01-29T02:13:11;3.80;99.90
51589;DHT22;37671;53.258;6.460;2023-01-29T02:15:40;3.80;99.90
51589;DHT22;37671;53.258;6.460;2023-01-29T02:18:07;5.20;99.90
51589;DHT22;37671;53.258;6.460;2023-01-29T02:20:33;3.80;99.90
51589;DHT22;37671;53.258;6.460;2023-01-29T02:25:50;3.90;99.90
51589;DHT22;37671;53.258;6.460;2023-01-29T02:28:48;3.90;99.90
51589;DHT22;37671;53.258;6.460;2023-01-29T02:42:30;3.90;99.90
51589;DHT22;37671;53.258;6.460;2023-01-29T02:45:17;3.90;99.90
51589;DHT22;37671;53.258;6.460;2023-01-29T02:47:49;3.90;99.90
51589;DHT22;37671;53.258;6.460;2023-01-29T02:53:00;3.90;99.90
51589;DHT22;37671;53.258;6.460;2023-01-29T02:55:48;3.90;99.90
51589;DHT22;37671;53.258;6.460;2023-01-29T02:58:48;3.90;99.90
51589;DHT22;37671;53.258;6.460;2023-01-29T03:01:20;3.90;99.90
51589;DHT22;37671;53.258;6.460;2023-01-29T03:03:53;3.90;99.90
51589;DHT22;37671;53.258;6.460;2023-01-29T03:06:22;3.90;99.90
51589;DHT22;37671;53.258;6.460;2023-01-29T03:09:12;3.90;99.90
51589;DHT22;37671;53.258;6.460;2023-01-29T03:11:47;3.90;99.90
51589;DHT22;37671;53.258;6.460;2023-01-29T03:14:22;3.90;99.90
51589;DHT22;37671;53.258;6.460;2023-01-29T03:16:51;3.90;99.90
51589;DHT22;37671;53.258;6.460;2023-01-29T03:19:36;3.90;99.90
51589;DHT22;37671;53.258;6.460;2023-01-29T03:22:04;3.90;99.90
51589;DHT22;37671;53.258;6.460;2023-01-29T03:24:52;4.20;99.90
51589;DHT22;37671;53.258;6.460;2023-01-29T03:27:52;3.90;99.90
51589;DHT22;37671;53.258;6.460;2023-01-29T03:30:51;3.90;99.90
51589;DHT22;37671;53.258;6.460;2023-01-29T03:34:02;3.90;99.90
51589;DHT22;37671;53.258;6.460;2023-01-29T03:36:48;4.10;99.90
51589;DHT22;37671;53.258;6.460;2023-01-29T03:39:21;3.90;99.90
51589;DHT22;37671;53.258;6.460;2023-01-29T03:47:43;3.90;99.90
51589;DHT22;37671;53.258;6.460;2023-01-29T03:59:01;4.00;99.90
51589;DHT22;37671;53.258;6.460;2023-01-29T04:01:41;4.00;99.90
51589;DHT22;37671;53.258;6.460;2023-01-29T04:04:14;4.00;99.90
51589;DHT22;37671;53.258;6.460;2023-01-29T04:06:43;4.00;99.90
51589;DHT22;37671;53.258;6.460;2023-01-29T04:09:30;4.00;99.90
51589;DHT22;37671;53.258;6.460;2023-01-29T04:12:04;4.00;99.90
51589;DHT22;37671;53.258;6.460;2023-01-29T04:14:33;4.00;99.90
51589;DHT22;37671;53.258;6.460;2023-01-29T04:17:05;4.00;99.90
51589;DHT22;37671;53.258;6.460;2023-01-29T04:19:34;4.00;99.90
51589;DHT22;37671;53.258;6.460;2023-01-29T04:22:12;4.00;99.90
51589;DHT22;37671;53.258;6.460;2023-01-29T04:24:41;4.00;99.90
51589;DHT22;37671;53.258;6.460;2023-01-29T04:27:25;4.20;99.90
51589;DHT22;37671;53.258;6.460;2023-01-29T04:30:05;4.00;99.90
51589;DHT22;37671;53.258;6.460;2023-01-29T04:41:26;4.00;99.90
51589;DHT22;37671;53.258;6.460;2023-01-29T04:46:41;4.00;99.90
51589;DHT22;37671;53.258;6.460;2023-01-29T04:49:24;4.00;99.90
51589;DHT22;37671;53.258;6.460;2023-01-29T05:02:40;4.90;99.90
51589;DHT22;37671;53.258;6.460;2023-01-29T05:05:07;4.00;99.90
51589;DHT22;37671;53.258;6.460;2023-01-29T05:07:37;4.00;99.90
51589;DHT22;37671;53.258;6.460;2023-01-29T05:10:08;4.00;99.90
51589;DHT22;37671;53.258;6.460;2023-01-29T05:12:36;4.00;99.90
51589;DHT22;37671;53.258;6.460;2023-01-29T05:15:06;4.00;99.90
51589;DHT22;37671;53.258;6.460;2023-01-29T05:17:32;4.00;99.90
51589;DHT22;37671;53.258;6.460;2023-01-29T05:19:58;4.00;99.90
51589;DHT22;37671;53.258;6.460;2023-01-29T05:22:24;4.20;99.90
51589;DHT22;37671;53.258;6.460;2023-01-29T05:24:51;4.00;99.90
51589;DHT22;37671;53.258;6.460;2023-01-29T05:27:20;4.00;99.90
51589;DHT22;37671;53.258;6.460;2023-01-29T05:30:07;4.00;99.90
51589;DHT22;37671;53.258;6.460;2023-01-29T05:32:33;4.00;99.90
51589;DHT22;37671;53.258;6.460;2023-01-29T05:34:59;4.00;99.90
51589;DHT22;37671;53.258;6.460;2023-01-29T05:37:24;4.00;99.90
51589;DHT22;37671;53.258;6.460;2023-01-29T05:39:50;4.00;99.90
51589;DHT22;37671;53.258;6.460;2023-01-29T05:42:15;4.20;99.90
51589;DHT22;37671;53.258;6.460;2023-01-29T05:44:43;4.00;99.90
51589;DHT22;37671;53.258;6.460;2023-01-29T05:47:08;4.00;99.90
51589;DHT22;37671;53.258;6.460;2023-01-29T05:49:34;4.00;99.90
51589;DHT22;37671;53.258;6.460;2023-01-29T05:52:00;4.00;99.90
51589;DHT22;37671;53.258;6.460;2023-01-29T05:54:27;4.30;99.90
51589;DHT22;37671;53.258;6.460;2023-01-29T05:56:54;4.00;99.90
51589;DHT22;37671;53.258;6.460;2023-01-29T05:59:19;4.00;99.90
51589;DHT22;37671;53.258;6.460;2023-01-29T06:01:45;4.00;99.90
51589;DHT22;37671;53.258;6.460;2023-01-29T06:04:11;4.00;99.90
51589;DHT22;37671;53.258;6.460;2023-01-29T06:06:37;4.10;99.90
51589;DHT22;37671;53.258;6.460;2023-01-29T06:09:03;4.20;99.90
51589;DHT22;37671;53.258;6.460;2023-01-29T06:11:29;4.10;99.90
51589;DHT22;37671;53.258;6.460;2023-01-29T06:13:54;4.10;99.90
51589;DHT22;37671;53.258;6.460;2023-01-29T06:16:20;4.10;99.90
51589;DHT22;37671;53.258;6.460;2023-01-29T06:18:46;4.40;99.90
51589;DHT22;37671;53.258;6.460;2023-01-29T06:21:12;4.10;99.90
51589;DHT22;37671;53.258;6.460;2023-01-29T06:23:39;4.20;99.90
51589;DHT22;37671;53.258;6.460;2023-01-29T06:26:07;4.10;99.90
51589;DHT22;37671;53.258;6.460;2023-01-29T06:28:33;4.10;99.90
51589;DHT22;37671;53.258;6.460;2023-01-29T06:31:01;4.10;99.90
51589;DHT22;37671;53.258;6.460;2023-01-29T06:33:27;4.10;99.90
51589;DHT22;37671;53.258;6.460;2023-01-29T06:36:00;4.10;99.90
51589;DHT22;37671;53.258;6.460;2023-01-29T06:38:26;4.20;99.90
51589;DHT22;37671;53.258;6.460;2023-01-29T06:40:52;4.20;99.90
51589;DHT22;37671;53.258;6.460;2023-01-29T06:43:18;4.20;99.90
51589;DHT22;37671;53.258;6.460;2023-01-29T06:45:53;4.20;99.90
51589;DHT22;37671;53.258;6.460;2023-01-29T06:48:19;4.20;99.90
51589;DHT22;37671;53.258;6.460;2023-01-29T06:50:45;4.20;99.90
51589;DHT22;37671;53.258;6.460;2023-01-29T06:53:11;4.20;99.90
51589;DHT22;37671;53.258;6.460;2023-01-29T06:55:36;4.20;99.90
51589;DHT22;37671;53.258;6.460;2023-01-29T06:58:07;4.20;99.90
51589;DHT22;37671;53.258;6.460;2023-01-29T07:00:33;4.10;99.90
51589;DHT22;37671;53.258;6.460;2023-01-29T07:02:59;4.10;99.90
51589;DHT22;37671;53.258;6.460;2023-01-29T07:05:24;4.10;99.90
51589;DHT22;37671;53.258;6.460;2023-01-29T07:07:51;4.10;99.90
51589;DHT22;37671;53.258;6.460;2023-01-29T07:10:17;4.10;99.90
51589;DHT22;37671;53.258;6.460;2023-01-29T07:12:43;4.10;99.90
51589;DHT22;37671;53.258;6.460;2023-01-29T07:15:08;4.10;99.90
51589;DHT22;37671;53.258;6.460;2023-01-29T07:17:34;4.10;99.90
51589;DHT22;37671;53.258;6.460;2023-01-29T07:20:00;4.10;99.90
51589;DHT22;37671;53.258;6.460;2023-01-29T07:22:25;4.20;99.90
51589;DHT22;37671;53.258;6.460;2023-01-29T07:24:51;4.10;99.90
51589;DHT22;37671;53.258;6.460;2023-01-29T07:27:16;4.10;99.90
51589;DHT22;37671;53.258;6.460;2023-01-29T07:29:42;4.10;99.90
51589;DHT22;37671;53.258;6.460;2023-01-29T07:32:07;4.10;99.90
51589;DHT22;37671;53.258;6.460;2023-01-29T07:34:33;4.10;99.90
51589;DHT22;37671;53.258;6.460;2023-01-29T07:36:59;5.20;99.90
51589;DHT22;37671;53.258;6.460;2023-01-29T07:39:24;4.10;99.90
51589;DHT22;37671;53.258;6.460;2023-01-29T07:41:50;4.10;99.90
51589;DHT22;37671;53.258;6.460;2023-01-29T07:44:15;4.10;99.90
51589;DHT22;37671;53.258;6.460;2023-01-29T07:46:41;4.10;99.90
51589;DHT22;37671;53.258;6.460;2023-01-29T07:49:07;4.10;99.90
51589;DHT22;37671;53.258;6.460;2023-01-29T07:51:33;4.10;99.90
51589;DHT22;37671;53.258;6.460;2023-01-29T07:53:58;4.10;99.90
51589;DHT22;37671;53.258;6.460;2023-01-29T07:56:24;4.10;99.90
51589;DHT22;37671;53.258;6.460;2023-01-29T07:58:49;4.10;99.90
51589;DHT22;37671;53.258;6.460;2023-01-29T08:01:15;4.10;99.90
51589;DHT22;37671;53.258;6.460;2023-01-29T08:03:40;4.10;99.90
51589;DHT22;37671;53.258;6.460;2023-01-29T08:06:06;4.10;99.90
51589;DHT22;37671;53.258;6.460;2023-01-29T08:08:32;4.10;99.90
51589;DHT22;37671;53.258;6.460;2023-01-29T08:11:00;4.10;99.90
51589;DHT22;37671;53.258;6.460;2023-01-29T08:13:26;4.10;99.90
51589;DHT22;37671;53.258;6.460;2023-01-29T08:15:52;4.10;99.90
51589;DHT22;37671;53.258;6.460;2023-01-29T08:18:18;4.10;99.90
51589;DHT22;37671;53.258;6.460;2023-01-29T08:20:43;4.10;99.90
51589;DHT22;37671;53.258;6.460;2023-01-29T08:23:13;4.00;99.90
51589;DHT22;37671;53.258;6.460;2023-01-29T08:25:39;4.10;99.90
51589;DHT22;37671;53.258;6.460;2023-01-29T08:28:05;4.10;99.90
51589;DHT22;37671;53.258;6.460;2023-01-29T08:30:32;4.10;99.90
51589;DHT22;37671;53.258;6.460;2023-01-29T08:32:58;4.00;99.90
51589;DHT22;37671;53.258;6.460;2023-01-29T08:35:24;4.80;99.90
51589;DHT22;37671;53.258;6.460;2023-01-29T08:37:58;4.00;99.90
51589;DHT22;37671;53.258;6.460;2023-01-29T08:40:25;4.10;99.90
51589;DHT22;37671;53.258;6.460;2023-01-29T08:42:50;4.10;99.90
51589;DHT22;37671;53.258;6.460;2023-01-29T08:45:16;4.10;99.90
51589;DHT22;37671;53.258;6.460;2023-01-29T08:47:46;4.10;99.90
51589;DHT22;37671;53.258;6.460;2023-01-29T08:50:13;4.20;99.90
51589;DHT22;37671;53.258;6.460;2023-01-29T08:52:38;4.20;99.90
51589;DHT22;37671;53.258;6.460;2023-01-29T08:55:04;4.20;99.90
51589;DHT22;37671;53.258;6.460;2023-01-29T08:57:30;4.30;99.90
51589;DHT22;37671;53.258;6.460;2023-01-29T08:59:55;4.20;99.90
51589;DHT22;37671;53.258;6.460;2023-01-29T09:02:21;4.30;99.90
51589;DHT22;37671;53.258;6.460;2023-01-29T09:04:47;4.30;99.90
51589;DHT22;37671;53.258;6.460;2023-01-29T09:07:12;4.30;99.90
51589;DHT22;37671;53.258;6.460;2023-01-29T09:09:38;4.30;99.90
51589;DHT22;37671;53.258;6.460;2023-01-29T09:12:04;4.30;99.90
51589;DHT22;37671;53.258;6.460;2023-01-29T09:14:29;4.30;99.90
51589;DHT22;37671;53.258;6.460;2023-01-29T09:16:55;5.60;99.90
51589;DHT22;37671;53.258;6.460;2023-01-29T09:19:21;4.50;99.90
51589;DHT22;37671;53.258;6.460;2023-01-29T09:21:47;4.60;99.90
51589;DHT22;37671;53.258;6.460;2023-01-29T09:24:14;4.60;99.90
51589;DHT22;37671;53.258;6.460;2023-01-29T09:26:39;4.60;99.90
51589;DHT22;37671;53.258;6.460;2023-01-29T09:29:05;6.10;99.90
51589;DHT22;37671;53.258;6.460;2023-01-29T09:31:31;4.70;99.90
51589;DHT22;37671;53.258;6.460;2023-01-29T09:33:57;4.60;99.90
51589;DHT22;37671;53.258;6.460;2023-01-29T09:36:22;5.80;99.90
51589;DHT22;37671;53.258;6.460;2023-01-29T09:38:48;4.60;99.90
51589;DHT22;37671;53.258;6.460;2023-01-29T09:44:02;4.70;99.90
51589;DHT22;37671;53.258;6.460;2023-01-29T09:46:38;4.70;99.90
51589;DHT22;37671;53.258;6.460;2023-01-29T09:49:17;4.70;99.90
51589;DHT22;37671;53.258;6.460;2023-01-29T09:52:37;4.70;99.90
51589;DHT22;37671;53.258;6.460;2023-01-29T09:55:18;4.70;99.90
51589;DHT22;37671;53.258;6.460;2023-01-29T10:03:21;4.80;99.90
51589;DHT22;37671;53.258;6.460;2023-01-29T10:09:01;4.80;99.90
51589;DHT22;37671;53.258;6.460;2023-01-29T10:17:47;4.70;99.90
51589;DHT22;37671;53.258;6.460;2023-01-29T10:23:33;4.60;99.90
51589;DHT22;37671;53.258;6.460;2023-01-29T10:26:01;4.60;99.90
51589;DHT22;37671;53.258;6.460;2023-01-29T10:28:44;5.90;99.90
51589;DHT22;37671;53.258;6.460;2023-01-29T10:31:21;4.60;99.90
51589;DHT22;37671;53.258;6.460;2023-01-29T10:34:18;4.60;99.90
51589;DHT22;37671;53.258;6.460;2023-01-29T10:36:47;4.60;99.90
51589;DHT22;37671;53.258;6.460;2023-01-29T10:39:18;4.60;99.90
51589;DHT22;37671;53.258;6.460;2023-01-29T10:44:28;4.70;99.90
51589;DHT22;37671;53.258;6.460;2023-01-29T10:47:31;4.70;99.90
51589;DHT22;37671;53.258;6.460;2023-01-29T10:53:05;4.80;99.90
51589;DHT22;37671;53.258;6.460;2023-01-29T11:00:39;4.90;99.90
51589;DHT22;37671;53.258;6.460;2023-01-29T11:03:26;4.90;99.90
51589;DHT22;37671;53.258;6.460;2023-01-29T11:06:15;4.90;99.90
51589;DHT22;37671;53.258;6.460;2023-01-29T11:08:51;4.90;99.90
51589;DHT22;37671;53.258;6.460;2023-01-29T11:11:19;4.90;99.90
51589;DHT22;37671;53.258;6.460;2023-01-29T11:14:01;6.10;99.90
51589;DHT22;37671;53.258;6.460;2023-01-29T11:16:44;4.90;99.90
51589;DHT22;37671;53.258;6.460;2023-01-29T11:19:11;5.00;99.90
51589;DHT22;37671;53.258;6.460;2023-01-29T11:21:51;5.00;99.90
51589;DHT22;37671;53.258;6.460;2023-01-29T11:24:17;5.70;99.90
51589;DHT22;37671;53.258;6.460;2023-01-29T11:26:45;5.10;99.90
51589;DHT22;37671;53.258;6.460;2023-01-29T11:29:32;5.10;99.90
51589;DHT22;37671;53.258;6.460;2023-01-29T11:32:00;5.10;99.90
51589;DHT22;37671;53.258;6.460;2023-01-29T11:34:27;5.40;99.90
51589;DHT22;37671;53.258;6.460;2023-01-29T11:37:02;5.20;99.90
51589;DHT22;37671;53.258;6.460;2023-01-29T11:39:29;5.20;99.90
51589;DHT22;37671;53.258;6.460;2023-01-29T11:41:59;6.40;99.90
51589;DHT22;37671;53.258;6.460;2023-01-29T11:44:40;5.30;99.90
51589;DHT22;37671;53.258;6.460;2023-01-29T11:49:49;5.30;99.90
51589;DHT22;37671;53.258;6.460;2023-01-29T11:52:19;5.70;99.90
51589;DHT22;37671;53.258;6.460;2023-01-29T11:54:56;5.40;99.90
51589;DHT22;37671;53.258;6.460;2023-01-29T11:57:27;5.40;99.90
51589;DHT22;37671;53.258;6.460;2023-01-29T12:00:00;5.40;99.90
51589;DHT22;37671;53.258;6.460;2023-01-29T12:02:37;5.40;99.90
51589;DHT22;37671;53.258;6.460;2023-01-29T12:05:26;5.40;99.90
51589;DHT22;37671;53.258;6.460;2023-01-29T12:07:55;5.40;99.90
51589;DHT22;37671;53.258;6.460;2023-01-29T12:10:39;5.40;99.90
51589;DHT22;37671;53.258;6.460;2023-01-29T12:15:34;5.50;99.90
51589;DHT22;37671;53.258;6.460;2023-01-29T12:18:27;5.50;99.90
51589;DHT22;37671;53.258;6.460;2023-01-29T12:21:01;5.60;99.90
51589;DHT22;37671;53.258;6.460;2023-01-29T12:23:56;5.60;99.90
51589;DHT22;37671;53.258;6.460;2023-01-29T12:26:33;5.60;99.90
51589;DHT22;37671;53.258;6.460;2023-01-29T12:29:14;5.60;99.90
51589;DHT22;37671;53.258;6.460;2023-01-29T12:39:50;5.70;99.90
51589;DHT22;37671;53.258;6.460;2023-01-29T12:42:21;6.30;99.90
51589;DHT22;37671;53.258;6.460;2023-01-29T12:44:54;7.30;99.90
51589;DHT22;37671;53.258;6.460;2023-01-29T12:47:36;5.80;99.90
51589;DHT22;37671;53.258;6.460;2023-01-29T12:50:23;5.80;99.90
51589;DHT22;37671;53.258;6.460;2023-01-29T12:53:21;6.60;99.90
51589;DHT22;37671;53.258;6.460;2023-01-29T12:55:52;5.80;99.90
51589;DHT22;37671;53.258;6.460;2023-01-29T12:58:40;5.80;99.90
51589;DHT22;37671;53.258;6.460;2023-01-29T13:01:29;5.80;99.90
51589;DHT22;37671;53.258;6.460;2023-01-29T13:04:02;5.80;99.90
51589;DHT22;37671;53.258;6.460;2023-01-29T13:06:39;5.80;99.90
51589;DHT22;37671;53.258;6.460;2023-01-29T13:09:27;5.70;99.90
51589;DHT22;37671;53.258;6.460;2023-01-29T13:12:07;5.70;99.90
51589;DHT22;37671;53.258;6.460;2023-01-29T13:14:51;5.70;99.90
51589;DHT22;37671;53.258;6.460;2023-01-29T13:17:41;5.70;99.90
51589;DHT22;37671;53.258;6.460;2023-01-29T13:20:25;5.70;99.90
51589;DHT22;37671;53.258;6.460;2023-01-29T13:22:56;5.60;99.90
51589;DHT22;37671;53.258;6.460;2023-01-29T13:25:23;6.20;99.90
51589;DHT22;37671;53.258;6.460;2023-01-29T13:27:49;5.60;99.90
51589;DHT22;37671;53.258;6.460;2023-01-29T13:30:30;5.60;99.90
51589;DHT22;37671;53.258;6.460;2023-01-29T13:32:58;5.50;99.90
51589;DHT22;37671;53.258;6.460;2023-01-29T13:35:37;5.50;99.90
51589;DHT22;37671;53.258;6.460;2023-01-29T13:38:05;5.50;99.90
51589;DHT22;37671;53.258;6.460;2023-01-29T13:40:31;5.50;99.90
51589;DHT22;37671;53.258;6.460;2023-01-29T13:43:01;5.60;99.90
51589;DHT22;37671;53.258;6.460;2023-01-29T13:45:34;6.80;99.90
51589;DHT22;37671;53.258;6.460;2023-01-29T13:48:09;5.40;99.90
51589;DHT22;37671;53.258;6.460;2023-01-29T13:50:38;5.50;99.90
51589;DHT22;37671;53.258;6.460;2023-01-29T13:53:07;5.40;99.90
51589;DHT22;37671;53.258;6.460;2023-01-29T13:55:41;5.30;99.90
51589;DHT22;37671;53.258;6.460;2023-01-29T13:58:17;5.40;99.90
51589;DHT22;37671;53.258;6.460;2023-01-29T14:01:01;5.30;99.90
51589;DHT22;37671;53.258;6.460;2023-01-29T14:13:48;5.20;99.90
51589;DHT22;37671;53.258;6.460;2023-01-29T14:18:48;5.60;99.90
51589;DHT22;37671;53.258;6.460;2023-01-29T14:21:31;5.10;99.90
51589;DHT22;37671;53.258;6.460;2023-01-29T14:24:17;5.10;99.90
51589;DHT22;37671;53.258;6.460;2023-01-29T14:26:46;5.10;99.90
51589;DHT22;37671;53.258;6.460;2023-01-29T14:29:19;5.10;99.90
51589;DHT22;37671;53.258;6.460;2023-01-29T14:35:16;5.00;99.90
51589;DHT22;37671;53.258;6.460;2023-01-29T14:40:28;5.00;99.90
51589;DHT22;37671;53.258;6.460;2023-01-29T14:43:05;5.00;99.90
51589;DHT22;37671;53.258;6.460;2023-01-29T14:45:38;5.00;99.90
51589;DHT22;37671;53.258;6.460;2023-01-29T14:56:33;5.10;99.90
51589;DHT22;37671;53.258;6.460;2023-01-29T15:01:38;5.10;99.90
51589;DHT22;37671;53.258;6.460;2023-01-29T15:06:44;5.00;99.90
51589;DHT22;37671;53.258;6.460;2023-01-29T15:09:34;5.00;99.90
51589;DHT22;37671;53.258;6.460;2023-01-29T15:12:19;5.00;99.90
51589;DHT22;37671;53.258;6.460;2023-01-29T15:18:12;5.00;99.90
51589;DHT22;37671;53.258;6.460;2023-01-29T15:20:40;4.90;99.90
51589;DHT22;37671;53.258;6.460;2023-01-29T15:23:26;4.90;99.90
51589;DHT22;37671;53.258;6.460;2023-01-29T15:25:53;6.10;99.90
51589;DHT22;37671;53.258;6.460;2023-01-29T15:28:20;5.40;99.90
51589;DHT22;37671;53.258;6.460;2023-01-29T15:30:52;4.90;99.90
51589;DHT22;37671;53.258;6.460;2023-01-29T15:33:18;4.90;99.90
51589;DHT22;37671;53.258;6.460;2023-01-29T15:35:44;4.90;99.90
51589;DHT22;37671;53.258;6.460;2023-01-29T15:38:22;5.00;99.90
51589;DHT22;37671;53.258;6.460;2023-01-29T15:40:54;5.00;99.90
51589;DHT22;37671;53.258;6.460;2023-01-29T15:43:27;5.00;99.90
51589;DHT22;37671;53.258;6.460;2023-01-29T15:45:58;5.00;99.90
51589;DHT22;37671;53.258;6.460;2023-01-29T15:48:44;5.00;99.90
51589;DHT22;37671;53.258;6.460;2023-01-29T15:51:16;5.00;99.90
51589;DHT22;37671;53.258;6.460;2023-01-29T15:53:57;4.90;99.90
51589;DHT22;37671;53.258;6.460;2023-01-29T15:56:40;4.90;99.90
51589;DHT22;37671;53.258;6.460;2023-01-29T15:59:15;4.90;99.90
51589;DHT22;37671;53.258;6.460;2023-01-29T16:01:41;4.90;99.90
51589;DHT22;37671;53.258;6.460;2023-01-29T16:04:17;4.90;99.90
51589;DHT22;37671;53.258;6.460;2023-01-29T16:06:44;4.90;99.90
51589;DHT22;37671;53.258;6.460;2023-01-29T16:09:17;4.90;99.90
51589;DHT22;37671;53.258;6.460;2023-01-29T16:11:45;4.90;99.90
51589;DHT22;37671;53.258;6.460;2023-01-29T16:14:13;5.00;99.90
51589;DHT22;37671;53.258;6.460;2023-01-29T16:16:40;6.20;99.90
51589;DHT22;37671;53.258;6.460;2023-01-29T16:19:23;5.00;99.90
51589;DHT22;37671;53.258;6.460;2023-01-29T16:21:59;5.00;99.90
51589;DHT22;37671;53.258;6.460;2023-01-29T16:24:26;4.80;99.90
51589;DHT22;37671;53.258;6.460;2023-01-29T16:26:57;5.00;99.90
51589;DHT22;37671;53.258;6.460;2023-01-29T16:29:30;5.00;99.90
51589;DHT22;37671;53.258;6.460;2023-01-29T16:31:58;5.00;99.90
51589;DHT22;37671;53.258;6.460;2023-01-29T16:34:36;5.00;99.90
51589;DHT22;37671;53.258;6.460;2023-01-29T16:37:05;5.00;99.90
51589;DHT22;37671;53.258;6.460;2023-01-29T16:39:36;5.00;99.90
51589;DHT22;37671;53.258;6.460;2023-01-29T16:44:36;5.10;99.90
51589;DHT22;37671;53.258;6.460;2023-01-29T16:47:27;5.10;99.90
51589;DHT22;37671;53.258;6.460;2023-01-29T16:49:59;5.10;99.90
51589;DHT22;37671;53.258;6.460;2023-01-29T16:52:32;5.10;99.90
51589;DHT22;37671;53.258;6.460;2023-01-29T16:55:19;5.10;99.90
51589;DHT22;37671;53.258;6.460;2023-01-29T16:57:50;5.10;99.90
51589;DHT22;37671;53.258;6.460;2023-01-29T17:00:23;5.10;99.90
51589;DHT22;37671;53.258;6.460;2023-01-29T17:02:52;5.10;99.90
51589;DHT22;37671;53.258;6.460;2023-01-29T17:05:26;6.30;99.90
51589;DHT22;37671;53.258;6.460;2023-01-29T17:07:55;5.10;99.90
51589;DHT22;37671;53.258;6.460;2023-01-29T17:10:22;5.10;99.90
51589;DHT22;37671;53.258;6.460;2023-01-29T17:12:53;5.10;99.90
51589;DHT22;37671;53.258;6.460;2023-01-29T17:15:36;5.10;99.90
51589;DHT22;37671;53.258;6.460;2023-01-29T17:18:18;5.10;99.90
51589;DHT22;37671;53.258;6.460;2023-01-29T17:20:44;5.10;99.90
51589;DHT22;37671;53.258;6.460;2023-01-29T17:23:10;5.70;99.90
51589;DHT22;37671;53.258;6.460;2023-01-29T17:25:36;5.00;99.90
51589;DHT22;37671;53.258;6.460;2023-01-29T17:28:02;5.00;99.90
51589;DHT22;37671;53.258;6.460;2023-01-29T17:30:30;5.00;99.90
51589;DHT22;37671;53.258;6.460;2023-01-29T17:33:09;5.00;99.90
51589;DHT22;37671;53.258;6.460;2023-01-29T17:35:35;5.00;99.90
51589;DHT22;37671;53.258;6.460;2023-01-29T17:38:00;5.00;99.90
51589;DHT22;37671;53.258;6.460;2023-01-29T17:43:08;5.00;99.90
51589;DHT22;37671;53.258;6.460;2023-01-29T17:45:36;5.20;99.90
51589;DHT22;37671;53.258;6.460;2023-01-29T17:48:03;5.00;99.90
51589;DHT22;37671;53.258;6.460;2023-01-29T17:50:31;5.10;99.90
51589;DHT22;37671;53.258;6.460;2023-01-29T17:52:58;5.00;99.90
51589;DHT22;37671;53.258;6.460;2023-01-29T17:55:24;5.00;99.90
51589;DHT22;37671;53.258;6.460;2023-01-29T17:57:49;5.10;99.90
51589;DHT22;37671;53.258;6.460;2023-01-29T18:00:17;6.40;99.90
51589;DHT22;37671;53.258;6.460;2023-01-29T18:02:44;5.00;99.90
51589;DHT22;37671;53.258;6.460;2023-01-29T18:05:11;5.10;99.90
51589;DHT22;37671;53.258;6.460;2023-01-29T18:07:37;5.10;99.90
51589;DHT22;37671;53.258;6.460;2023-01-29T18:10:04;5.10;99.90
51589;DHT22;37671;53.258;6.460;2023-01-29T18:12:30;5.10;99.90
51589;DHT22;37671;53.258;6.460;2023-01-29T18:14:56;5.10;99.90
51589;DHT22;37671;53.258;6.460;2023-01-29T18:17:21;5.10;99.90
51589;DHT22;37671;53.258;6.460;2023-01-29T18:19:48;5.10;99.90
51589;DHT22;37671;53.258;6.460;2023-01-29T18:22:14;5.00;99.90
51589;DHT22;37671;53.258;6.460;2023-01-29T18:24:40;5.10;99.90
51589;DHT22;37671;53.258;6.460;2023-01-29T18:27:05;5.10;99.90
51589;DHT22;37671;53.258;6.460;2023-01-29T18:29:31;5.00;99.90
51589;DHT22;37671;53.258;6.460;2023-01-29T18:31:56;5.00;99.90
51589;DHT22;37671;53.258;6.460;2023-01-29T18:34:22;5.10;99.90
51589;DHT22;37671;53.258;6.460;2023-01-29T18:36:48;5.00;99.90